Time;durP1;ratioP1;P1;durP2;ratioP2;P2;SDS_P1;SDS_P2;PMS_P1;PMS_P2;Temp;Humidity;BMP_temperature;BMP_pressure;BME280_temperature;BME280_humidity;BME280_pressure;Samples;Min_cycle;Max_cycle;Signal;HPM_P1;HPM_P2
2023/09/19 00:01:24;;;;;;;1.17;0.80;;;;;;;;;;6236952;22;20369;-93
2023/09/19 00:03:53;;;;;;;2.27;1.47;;;;;;;;;;6236474;22;20392;-93
2023/09/19 00:06:20;;;;;;;1.37;1.00;;;;;;;;;;6244319;22;20477;-94
2023/09/19 00:08:47;;;;;;;2.17;1.13;;;;;;;;;;6243170;22;20708;-93
2023/09/19 00:11:14;;;;;;;1.77;0.90;;;;;;;;;;6244160;22;20362;-94
2023/09/19 00:13:40;;;;;;;1.60;1.13;;;;;;;;;;6242471;22;20393;-93
2023/09/19 00:16:10;;;;;;;1.20;0.90;;;;;;;;;;6244990;22;20437;-93
2023/09/19 00:18:37;;;;;;;1.67;1.00;;;;;;;;;;6243110;22;20420;-93
2023/09/19 00:21:07;;;;;;;1.30;0.80;;;;;;;;;;6245741;22;20383;-94
2023/09/19 00:23:33;;;;;;;1.23;1.10;;;;;;;;;;6236228;22;20829;-93
2023/09/19 00:26:00;;;;;;;1.20;0.80;;;;;;;;;;6236447;22;20749;-94
2023/09/19 00:28:27;;;;;;;1.20;1.00;;;;;;;;;;6199029;23;20374;-95
2023/09/19 00:31:05;;;;;;;1.30;0.60;;;;;;;;;;6205613;23;20375;-93
2023/09/19 00:33:31;;;;;;;1.70;0.83;;;;;;;;;;6199853;23;20383;-93
2023/09/19 00:36:04;;;;;;;2.73;1.33;;;;;;;;;;6202483;23;20433;-93
2023/09/19 00:38:30;;;;;;;1.00;0.70;;;;;;;;;;6199511;23;20394;-93
2023/09/19 00:41:01;;;;;;;1.80;1.20;;;;;;;;;;6202147;23;20383;-93
2023/09/19 00:43:27;;;;;;;1.40;0.80;;;;;;;;;;6200488;23;20413;-94
2023/09/19 00:45:57;;;;;;;1.77;0.97;;;;;;;;;;6203661;23;20423;-92
2023/09/19 00:48:27;;;;;;;2.17;0.93;;;;;;;;;;6200088;23;20387;-92
2023/09/19 00:50:53;;;;;;;1.17;0.87;;;;;;;;;;6221717;23;20392;-91
2023/09/19 00:53:21;;;;;;;1.20;0.90;;;;;;;;;;6199045;23;20379;-93
2023/09/19 00:55:47;;;;;;;1.07;0.80;;;;;;;;;;6201573;23;20449;-93
2023/09/19 00:58:15;;;;;;;2.03;0.80;;;;;;;;;;6165493;23;20408;-92
2023/09/19 01:01:00;;;;;;;1.00;0.90;;;;;;;;;;6169553;23;20400;-92
2023/09/19 01:03:26;;;;;;;4.63;1.60;;;;;;;;;;6138833;23;20439;-93
2023/09/19 01:05:54;;;;;;;1.10;0.80;;;;;;;;;;6166357;23;20404;-93
2023/09/19 01:08:20;;;;;;;1.80;1.10;;;;;;;;;;6164568;23;20385;-93
2023/09/19 01:10:53;;;;;;;1.37;1.10;;;;;;;;;;6139091;23;20381;-93
2023/09/19 01:13:18;;;;;;;1.60;0.87;;;;;;;;;;6196913;23;20390;-93
2023/09/19 01:15:49;;;;;;;1.30;0.70;;;;;;;;;;6199828;23;20452;-94
2023/09/19 01:18:24;;;;;;;1.07;0.90;;;;;;;;;;6174487;23;20359;-94
2023/09/19 01:20:53;;;;;;;0.90;0.70;;;;;;;;;;6200462;23;20382;-93
2023/09/19 01:23:21;;;;;;;1.40;1.30;;;;;;;;;;6197173;23;20430;-93
2023/09/19 01:26:10;;;;;;;3.70;0.97;;;;;;;;;;6174795;23;20375;-93
2023/09/19 01:28:57;;;;;;;1.40;0.93;;;;;;;;;;6127826;23;20857;-93
2023/09/19 01:31:23;;;;;;;1.30;0.90;;;;;;;;;;6177853;23;20400;-93
2023/09/19 01:33:59;;;;;;;1.43;0.93;;;;;;;;;;6175485;23;20402;-93
2023/09/19 01:39:06;;;;;;;0.97;0.73;;;;;;;;;;6264628;22;20468;-94
2023/09/19 01:41:52;;;;;;;1.10;0.63;;;;;;;;;;6213750;23;20425;-94
2023/09/19 01:44:40;;;;;;;1.80;1.40;;;;;;;;;;6236806;23;20370;-94
2023/09/19 01:47:10;;;;;;;0.90;0.60;;;;;;;;;;6237679;23;20378;-93
2023/09/19 01:49:46;;;;;;;1.60;0.60;;;;;;;;;;6211402;23;20401;-93
2023/09/19 01:52:19;;;;;;;1.40;0.83;;;;;;;;;;6214639;23;20412;-92
2023/09/19 01:54:53;;;;;;;3.73;1.90;;;;;;;;;;6214406;23;20425;-93
2023/09/19 01:57:19;;;;;;;1.63;1.37;;;;;;;;;;6212401;23;20409;-93
2023/09/19 01:59:54;;;;;;;0.90;0.70;;;;;;;;;;6236644;23;20838;-93
2023/09/19 02:02:22;;;;;;;1.80;0.70;;;;;;;;;;6214633;23;20392;-93
2023/09/19 02:04:49;;;;;;;0.90;0.80;;;;;;;;;;6211323;23;20394;-93
2023/09/19 02:07:16;;;;;;;1.50;0.80;;;;;;;;;;6179484;22;20576;-94
2023/09/19 02:09:42;;;;;;;2.50;0.80;;;;;;;;;;6211466;23;20491;-95
2023/09/19 02:12:09;;;;;;;1.00;0.90;;;;;;;;;;6236779;23;20383;-94
2023/09/19 02:14:36;;;;;;;4.53;0.80;;;;;;;;;;6211935;23;20382;-95
2023/09/19 02:17:05;;;;;;;2.23;0.70;;;;;;;;;;6214663;22;20404;-94
2023/09/19 02:19:33;;;;;;;1.40;0.77;;;;;;;;;;6213058;23;20389;-94
2023/09/19 02:22:00;;;;;;;1.37;0.60;;;;;;;;;;6215753;22;20427;-95
2023/09/19 02:24:26;;;;;;;0.83;0.70;;;;;;;;;;6213644;23;20409;-94
2023/09/19 02:26:55;;;;;;;1.83;0.90;;;;;;;;;;6239138;23;20370;-96
2023/09/19 02:29:22;;;;;;;0.87;0.60;;;;;;;;;;6212175;23;20386;-95
2023/09/19 02:31:48;;;;;;;0.93;0.70;;;;;;;;;;6215329;23;20868;-95
2023/09/19 02:34:16;;;;;;;1.80;0.90;;;;;;;;;;6211121;23;20455;-94
2023/09/19 02:36:44;;;;;;;1.80;0.70;;;;;;;;;;6210571;23;20426;-94
2023/09/19 02:39:11;;;;;;;1.23;0.80;;;;;;;;;;6213097;23;20401;-94
2023/09/19 02:44:14;;;;;;;2.20;1.37;;;;;;;;;;6261367;22;20920;-93
2023/09/19 02:46:50;;;;;;;1.83;1.50;;;;;;;;;;6242251;23;20843;-94
2023/09/19 02:49:17;;;;;;;2.97;1.60;;;;;;;;;;6214795;23;20373;-94
2023/09/19 02:51:43;;;;;;;3.47;1.83;;;;;;;;;;6217862;23;20397;-93
2023/09/19 02:54:10;;;;;;;2.27;1.30;;;;;;;;;;6214762;23;20382;-93
2023/09/19 02:56:37;;;;;;;3.63;1.73;;;;;;;;;;6242617;23;20464;-94
2023/09/19 02:59:03;;;;;;;2.80;1.30;;;;;;;;;;6209093;23;20404;-93
2023/09/19 03:01:30;;;;;;;0.90;0.73;;;;;;;;;;6214706;23;20389;-94
2023/09/19 03:03:56;;;;;;;1.20;0.90;;;;;;;;;;6213279;23;20382;-94
2023/09/19 03:06:23;;;;;;;1.10;0.80;;;;;;;;;;6215124;23;20398;-94
2023/09/19 03:08:51;;;;;;;1.00;0.80;;;;;;;;;;6214447;23;20411;-93
2023/09/19 03:11:21;;;;;;;1.20;0.90;;;;;;;;;;6213833;23;20398;-94
2023/09/19 03:13:48;;;;;;;1.47;1.00;;;;;;;;;;6214498;23;20873;-94
2023/09/19 03:18:50;;;;;;;2.67;0.93;;;;;;;;;;6295757;22;20404;-94
2023/09/19 03:21:25;;;;;;;1.10;0.70;;;;;;;;;;6245070;22;20393;-94
2023/09/19 03:23:51;;;;;;;1.40;1.20;;;;;;;;;;6297942;22;20361;-93
2023/09/19 03:26:26;;;;;;;1.43;1.00;;;;;;;;;;6244522;22;20475;-94
2023/09/19 03:28:52;;;;;;;1.80;1.10;;;;;;;;;;6271793;22;20373;-93
2023/09/19 03:31:18;;;;;;;1.43;1.23;;;;;;;;;;6243732;22;20435;-93
2023/09/19 03:33:44;;;;;;;2.63;1.00;;;;;;;;;;6235710;22;20455;-92
2023/09/19 03:36:13;;;;;;;1.37;0.90;;;;;;;;;;6236163;22;20408;-92
2023/09/19 03:38:39;;;;;;;1.00;0.87;;;;;;;;;;6238301;22;20361;-93
2023/09/19 03:41:05;;;;;;;1.17;1.07;;;;;;;;;;6237236;22;20377;-93
2023/09/19 03:43:33;;;;;;;1.00;0.90;;;;;;;;;;6264085;22;20393;-93
2023/09/19 03:51:51;;;;;;;1.40;1.27;;;;;;;;;;6257915;22;20433;-95
2023/09/19 03:54:19;;;;;;;4.60;1.00;;;;;;;;;;6210992;22;20405;-95
2023/09/19 03:56:48;;;;;;;2.40;0.90;;;;;;;;;;6230342;22;20464;-94
2023/09/19 03:59:14;;;;;;;0.90;0.77;;;;;;;;;;6172597;23;20380;-95
2023/09/19 04:01:41;;;;;;;1.20;0.90;;;;;;;;;;6148860;23;20396;-95
2023/09/19 04:04:12;;;;;;;1.00;0.83;;;;;;;;;;6150887;23;20383;-94
2023/09/19 04:06:39;;;;;;;3.07;1.20;;;;;;;;;;6170932;23;20391;-94
2023/09/19 04:09:07;;;;;;;1.40;0.77;;;;;;;;;;6146410;23;20380;-95
2023/09/19 04:11:33;;;;;;;2.47;1.00;;;;;;;;;;6142732;23;20384;-94
2023/09/19 04:13:59;;;;;;;1.20;0.80;;;;;;;;;;6145196;23;20387;-94
2023/09/19 04:16:29;;;;;;;1.30;0.90;;;;;;;;;;6143698;23;20427;-95
2023/09/19 04:42:19;;;;;;;2.03;0.80;;;;;;;;;;6258730;22;20512;-95
2023/09/19 04:44:45;;;;;;;1.57;1.40;;;;;;;;;;6229556;23;20405;-95
2023/09/19 04:47:12;;;;;;;1.50;1.07;;;;;;;;;;6234256;23;20400;-93
2023/09/19 04:49:39;;;;;;;2.43;1.20;;;;;;;;;;6235095;23;20398;-94
2023/09/19 05:13:01;;;;;;;1.53;0.77;;;;;;;;;;6262413;22;20441;-95
2023/09/19 05:15:29;;;;;;;2.47;1.10;;;;;;;;;;6226826;22;20443;-93
2023/09/19 05:17:55;;;;;;;10.57;1.87;;;;;;;;;;6269464;22;20838;-95
2023/09/19 05:20:29;;;;;;;2.33;1.37;;;;;;;;;;6241127;22;20857;-95
2023/09/19 05:28:07;;;;;;;1.00;0.90;;;;;;;;;;6265252;22;20417;-94
2023/09/19 05:30:35;;;;;;;2.33;1.50;;;;;;;;;;6236502;23;20413;-94
2023/09/19 05:33:06;;;;;;;2.67;1.30;;;;;;;;;;6234971;23;20390;-95
2023/09/19 05:35:36;;;;;;;1.87;1.17;;;;;;;;;;6236059;23;20489;-95
2023/09/19 05:38:04;;;;;;;2.20;1.30;;;;;;;;;;6258852;22;20382;-96
2023/09/19 05:40:30;;;;;;;1.77;1.20;;;;;;;;;;6234716;23;20390;-94
2023/09/19 05:42:56;;;;;;;1.97;1.23;;;;;;;;;;6233049;23;21050;-94
2023/09/19 05:45:22;;;;;;;3.13;1.27;;;;;;;;;;6233986;23;20386;-95
2023/09/19 05:47:55;;;;;;;2.80;1.90;;;;;;;;;;6234933;23;20398;-95
2023/09/19 05:50:24;;;;;;;2.60;1.20;;;;;;;;;;6260644;22;20390;-95
2023/09/19 05:52:53;;;;;;;1.40;1.00;;;;;;;;;;6236262;23;20397;-93
2023/09/19 05:57:55;;;;;;;1.83;1.50;;;;;;;;;;6247154;22;20242;-93
2023/09/19 06:00:22;;;;;;;4.03;1.50;;;;;;;;;;6209195;23;20454;-94
2023/09/19 06:02:56;;;;;;;1.53;1.37;;;;;;;;;;6191988;22;20418;-94
2023/09/19 06:08:07;;;;;;;2.63;1.53;;;;;;;;;;6250989;22;20472;-95
2023/09/19 06:10:38;;;;;;;3.63;1.80;;;;;;;;;;6243371;22;20391;-94
2023/09/19 06:13:05;;;;;;;7.97;1.70;;;;;;;;;;6236287;23;20406;-92
2023/09/19 06:15:33;;;;;;;2.53;1.40;;;;;;;;;;6207976;23;20506;-95
2023/09/19 06:18:02;;;;;;;1.67;1.53;;;;;;;;;;6212870;23;20394;-96
2023/09/19 06:20:44;;;;;;;2.20;1.90;;;;;;;;;;6219116;23;20386;-93
2023/09/19 06:31:44;;;;;;;3.10;2.00;;;;;;;;;;6238090;22;20433;-92
2023/09/19 06:34:17;;;;;;;2.37;2.17;;;;;;;;;;6216119;23;20409;-94
2023/09/19 06:36:44;;;;;;;8.57;1.83;;;;;;;;;;6218049;22;20421;-95
2023/09/19 06:39:15;;;;;;;2.47;1.73;;;;;;;;;;6219932;22;20386;-93
2023/09/19 06:41:45;;;;;;;2.73;1.60;;;;;;;;;;6221609;22;20382;-93
2023/09/19 06:44:14;;;;;;;1.30;1.20;;;;;;;;;;6192828;22;20465;-93
2023/09/19 07:04:59;;;;;;;3.20;2.27;;;;;;;;;;6271767;22;20441;-93
2023/09/19 08:20:42;;;;;;;1.27;1.03;;;;;;;;;;6261394;22;20429;-96
2023/09/19 08:23:11;;;;;;;4.23;1.80;;;;;;;;;;6212397;23;20397;-96
2023/09/19 08:25:38;;;;;;;1.40;1.30;;;;;;;;;;6233759;23;20386;-96
2023/09/19 08:33:16;;;;;;;1.90;1.33;;;;;;;;;;6289664;22;20407;-95
2023/09/19 08:35:42;;;;;;;1.23;1.03;;;;;;;;;;6237282;22;20424;-94
2023/09/19 08:38:08;;;;;;;3.00;1.47;;;;;;;;;;6235427;22;20397;-94
2023/09/19 08:40:39;;;;;;;2.10;1.53;;;;;;;;;;6242708;22;20398;-95
2023/09/19 09:06:35;;;;;;;4.20;2.07;;;;;;;;;;6261640;22;20500;-96
2023/09/19 09:09:10;;;;;;;1.53;1.40;;;;;;;;;;6202380;23;20367;-96
2023/09/19 09:11:39;;;;;;;2.20;1.13;;;;;;;;;;6176814;23;20387;-96
2023/09/19 09:14:07;;;;;;;1.63;1.20;;;;;;;;;;6155423;23;20702;-96
2023/09/19 09:16:34;;;;;;;1.70;1.00;;;;;;;;;;6177228;23;20435;-96
2023/09/19 09:19:03;;;;;;;2.07;1.63;;;;;;;;;;6155416;23;20376;-96
2023/09/19 09:21:29;;;;;;;1.50;1.13;;;;;;;;;;6155124;23;20399;-95
2023/09/19 09:23:55;;;;;;;1.77;1.40;;;;;;;;;;6151575;23;20396;-96
2023/09/19 09:26:41;;;;;;;1.00;0.87;;;;;;;;;;6150866;23;20409;-96
2023/09/19 09:29:28;;;;;;;2.77;1.10;;;;;;;;;;6151365;23;20378;-96
2023/09/19 09:31:54;;;;;;;2.80;1.30;;;;;;;;;;6172781;23;20411;-96
2023/09/19 09:34:21;;;;;;;4.30;1.50;;;;;;;;;;6149010;23;20397;-94
2023/09/19 09:36:48;;;;;;;1.97;1.30;;;;;;;;;;6153352;23;20440;-95
2023/09/19 09:39:24;;;;;;;2.13;1.80;;;;;;;;;;6153171;23;20395;-96
2023/09/19 09:41:50;;;;;;;2.03;1.30;;;;;;;;;;6153098;23;20463;-96
2023/09/19 09:44:17;;;;;;;8.17;1.40;;;;;;;;;;6150632;23;20449;-95
2023/09/19 09:49:33;;;;;;;5.70;2.10;;;;;;;;;;6179155;23;20410;-96
2023/09/19 09:52:16;;;;;;;5.03;1.23;;;;;;;;;;6176217;23;20364;-96
2023/09/19 09:55:09;;;;;;;3.07;1.23;;;;;;;;;;6151892;23;20379;-95
2023/09/19 09:57:35;;;;;;;4.60;1.40;;;;;;;;;;6173284;23;20396;-96
2023/09/19 10:13:03;;;;;;;4.00;2.00;;;;;;;;;;6264319;22;20452;-95
2023/09/19 10:15:31;;;;;;;1.87;1.33;;;;;;;;;;6211004;22;20480;-96
2023/09/19 10:17:58;;;;;;;1.50;1.13;;;;;;;;;;6214107;23;20453;-95
2023/09/19 10:22:59;;;;;;;1.60;1.30;;;;;;;;;;6199775;23;20388;-95
2023/09/19 10:25:36;;;;;;;1.60;1.10;;;;;;;;;;6177003;23;20380;-96
2023/09/19 10:28:04;;;;;;;3.50;1.17;;;;;;;;;;6202261;23;20371;-96
2023/09/19 10:46:26;;;;;;;1.93;1.53;;;;;;;;;;6263178;22;20454;-95
2023/09/19 11:02:14;;;;;;;3.20;1.43;;;;;;;;;;6270438;22;20417;-96
2023/09/19 11:04:42;;;;;;;1.80;1.30;;;;;;;;;;6118231;23;20449;-94
2023/09/19 11:07:18;;;;;;;2.20;1.03;;;;;;;;;;6122592;23;20451;-96
2023/09/19 11:09:53;;;;;;;3.03;1.30;;;;;;;;;;6117524;23;20410;-96
2023/09/19 11:12:32;;;;;;;1.80;1.10;;;;;;;;;;6114558;23;20430;-96
2023/09/19 11:14:58;;;;;;;2.03;1.67;;;;;;;;;;6110982;23;20508;-96
2023/09/19 11:17:52;;;;;;;3.23;1.07;;;;;;;;;;6114070;23;20842;-96
2023/09/19 11:20:24;;;;;;;1.80;1.20;;;;;;;;;;6112230;23;20395;-94
2023/09/19 11:23:10;;;;;;;2.23;1.23;;;;;;;;;;6115097;23;20398;-95
2023/09/19 11:25:48;;;;;;;1.70;1.10;;;;;;;;;;6090824;23;20391;-96
2023/09/19 11:28:18;;;;;;;1.93;1.40;;;;;;;;;;6092108;23;20441;-95
2023/09/19 15:22:29;;;;;;;1.80;1.30;;;;;;;;;;6255362;22;20480;-94
2023/09/19 15:24:56;;;;;;;1.40;0.90;;;;;;;;;;6214828;22;20400;-94
2023/09/19 15:27:22;;;;;;;3.30;2.00;;;;;;;;;;6209677;23;20454;-95
2023/09/19 15:29:48;;;;;;;3.93;1.20;;;;;;;;;;6216346;23;20414;-94
2023/09/19 15:32:14;;;;;;;2.90;1.50;;;;;;;;;;6209560;23;20448;-92
2023/09/19 15:34:40;;;;;;;2.00;0.90;;;;;;;;;;6207356;23;20370;-94
2023/09/19 15:37:10;;;;;;;3.50;0.80;;;;;;;;;;6209111;23;20486;-94
2023/09/19 15:39:36;;;;;;;1.90;1.23;;;;;;;;;;6210540;23;20358;-94
2023/09/19 15:42:03;;;;;;;1.87;1.20;;;;;;;;;;6210224;22;20384;-93
2023/09/19 15:44:33;;;;;;;2.50;1.17;;;;;;;;;;6262496;22;20367;-94
2023/09/19 15:46:59;;;;;;;2.20;1.43;;;;;;;;;;6209599;22;20426;-96
2023/09/19 15:49:26;;;;;;;2.13;1.10;;;;;;;;;;6212330;22;20437;-93
2023/09/19 15:51:53;;;;;;;3.33;1.20;;;;;;;;;;6215965;23;20403;-94
2023/09/19 15:54:19;;;;;;;3.73;2.63;;;;;;;;;;6211185;23;20394;-94
2023/09/19 16:04:34;;;;;;;2.00;1.30;;;;;;;;;;6246220;22;20503;-94
2023/09/19 16:07:01;;;;;;;2.67;1.47;;;;;;;;;;6208142;23;20394;-96
2023/09/19 16:09:27;;;;;;;3.47;1.30;;;;;;;;;;6172476;23;20412;-95
2023/09/19 16:11:59;;;;;;;1.80;1.00;;;;;;;;;;6147499;23;20427;-95
2023/09/19 16:14:28;;;;;;;1.73;0.97;;;;;;;;;;6172905;23;20392;-95
2023/09/19 16:16:55;;;;;;;2.00;1.60;;;;;;;;;;6147997;23;20440;-93
2023/09/19 16:19:21;;;;;;;6.60;1.57;;;;;;;;;;6147885;23;20423;-95
2023/09/19 16:21:48;;;;;;;2.57;1.10;;;;;;;;;;6151043;23;20861;-95
2023/09/19 16:24:14;;;;;;;2.20;1.20;;;;;;;;;;6175247;23;20392;-94
2023/09/19 16:26:49;;;;;;;1.83;0.93;;;;;;;;;;6174281;23;20396;-94
2023/09/19 16:29:35;;;;;;;3.27;1.33;;;;;;;;;;6237092;22;20449;-94
2023/09/19 16:32:01;;;;;;;1.50;1.00;;;;;;;;;;6211575;23;20425;-94
2023/09/19 16:34:27;;;;;;;3.03;1.43;;;;;;;;;;6212146;23;20387;-94
2023/09/19 16:36:53;;;;;;;2.37;1.13;;;;;;;;;;6213735;23;20441;-95
2023/09/19 16:39:19;;;;;;;2.20;1.43;;;;;;;;;;6210233;23;20394;-95
2023/09/19 16:41:45;;;;;;;1.50;1.00;;;;;;;;;;6208637;23;20536;-93
2023/09/19 16:44:11;;;;;;;5.40;1.50;;;;;;;;;;6207972;23;20405;-93
2023/09/19 16:46:37;;;;;;;2.13;1.20;;;;;;;;;;6233199;23;20394;-94
2023/09/19 16:49:04;;;;;;;4.37;1.50;;;;;;;;;;6206944;23;20479;-94
2023/09/19 16:51:31;;;;;;;1.87;0.93;;;;;;;;;;6231906;23;20450;-92
2023/09/19 16:53:59;;;;;;;5.03;1.07;;;;;;;;;;6201168;23;20425;-94
2023/09/19 16:56:32;;;;;;;2.30;1.47;;;;;;;;;;6206125;22;20448;-94
2023/09/19 16:59:00;;;;;;;4.13;1.43;;;;;;;;;;6230092;23;20370;-95
2023/09/19 17:04:07;;;;;;;2.10;1.17;;;;;;;;;;6203775;22;20447;-92
2023/09/19 17:09:09;;;;;;;2.90;1.30;;;;;;;;;;6220215;22;20441;-95
2023/09/19 17:11:35;;;;;;;2.70;1.93;;;;;;;;;;6207171;23;20374;-94
2023/09/19 17:14:03;;;;;;;3.53;1.70;;;;;;;;;;6205736;23;20393;-94
2023/09/19 17:16:29;;;;;;;3.67;2.63;;;;;;;;;;6206307;23;20413;-95
2023/09/19 17:19:00;;;;;;;2.93;2.63;;;;;;;;;;6206267;23;20389;-93
2023/09/19 17:21:26;;;;;;;9.50;6.47;;;;;;;;;;6210996;22;20463;-93
2023/09/19 17:23:53;;;;;;;5.00;4.30;;;;;;;;;;6204745;23;20402;-94
2023/09/19 17:26:20;;;;;;;3.83;3.50;;;;;;;;;;6209475;23;20394;-95
2023/09/19 17:28:47;;;;;;;9.87;8.20;;;;;;;;;;6259451;22;20401;-95
2023/09/19 17:31:18;;;;;;;18.43;16.53;;;;;;;;;;6210126;23;20426;-96
2023/09/19 17:33:44;;;;;;;3.50;3.20;;;;;;;;;;6234835;23;20386;-96
2023/09/19 17:38:47;;;;;;;2.90;1.83;;;;;;;;;;6225295;22;20529;-93
2023/09/19 17:41:14;;;;;;;3.03;2.20;;;;;;;;;;6181493;23;20378;-94
2023/09/19 17:43:40;;;;;;;3.70;1.50;;;;;;;;;;6180858;23;20876;-96
2023/09/19 17:46:09;;;;;;;2.87;1.77;;;;;;;;;;6177115;23;20386;-93
2023/09/19 17:48:35;;;;;;;2.23;1.50;;;;;;;;;;6225577;22;20383;-93
2023/09/19 17:51:04;;;;;;;2.10;1.47;;;;;;;;;;6176897;23;20398;-93
2023/09/19 17:53:31;;;;;;;2.80;1.57;;;;;;;;;;6201377;23;20382;-94
2023/09/19 17:56:02;;;;;;;1.63;1.20;;;;;;;;;;6182169;23;20446;-93
2023/09/19 17:58:29;;;;;;;1.70;1.30;;;;;;;;;;6178204;23;20380;-93
2023/09/19 18:00:56;;;;;;;1.60;1.20;;;;;;;;;;6180686;23;20383;-91
2023/09/19 18:03:24;;;;;;;1.93;1.53;;;;;;;;;;6174858;23;20435;-91
2023/09/19 18:05:53;;;;;;;1.77;1.50;;;;;;;;;;6147571;23;20381;-91
2023/09/19 18:08:21;;;;;;;1.60;1.50;;;;;;;;;;6138170;23;20507;-92
2023/09/19 18:10:52;;;;;;;1.17;1.00;;;;;;;;;;6143363;23;20416;-93
2023/09/19 18:13:20;;;;;;;2.90;1.40;;;;;;;;;;6139753;23;20468;-92
2023/09/19 18:15:47;;;;;;;3.10;1.20;;;;;;;;;;6165105;23;20460;-91
2023/09/19 18:18:13;;;;;;;2.77;1.60;;;;;;;;;;6138989;23;20396;-92
2023/09/19 18:20:42;;;;;;;2.80;1.70;;;;;;;;;;6141733;23;20376;-92
2023/09/19 18:23:08;;;;;;;2.43;1.70;;;;;;;;;;6143213;23;20391;-93
2023/09/19 18:38:37;;;;;;;3.37;1.43;;;;;;;;;;6200618;23;20446;-92
2023/09/19 18:41:16;;;;;;;1.43;1.33;;;;;;;;;;6082856;23;20366;-92
2023/09/19 18:43:45;;;;;;;2.30;1.43;;;;;;;;;;6059056;23;20397;-92
2023/09/19 18:46:11;;;;;;;1.67;1.20;;;;;;;;;;6060092;23;20390;-92
2023/09/19 18:48:38;;;;;;;2.67;1.33;;;;;;;;;;6057923;23;20422;-92
2023/09/19 18:51:06;;;;;;;1.67;1.13;;;;;;;;;;6059027;23;20437;-92
2023/09/19 18:53:32;;;;;;;1.60;1.03;;;;;;;;;;6056839;23;20763;-92
2023/09/19 18:56:05;;;;;;;1.27;1.10;;;;;;;;;;6086163;23;20438;-92
2023/09/19 18:58:31;;;;;;;1.70;1.10;;;;;;;;;;6060132;23;20394;-92
2023/09/19 19:01:03;;;;;;;3.50;1.80;;;;;;;;;;6060061;23;20499;-94
2023/09/19 19:03:30;;;;;;;1.60;1.30;;;;;;;;;;6085266;23;20413;-93
2023/09/19 19:08:32;;;;;;;3.37;1.40;;;;;;;;;;6210071;23;20924;-92
2023/09/19 19:13:36;;;;;;;1.67;1.30;;;;;;;;;;6269396;22;20454;-93
2023/09/19 19:16:02;;;;;;;1.63;1.50;;;;;;;;;;6206992;23;20437;-92
2023/09/19 19:18:36;;;;;;;2.63;1.27;;;;;;;;;;6208807;23;20449;-92
2023/09/19 19:21:04;;;;;;;1.80;1.30;;;;;;;;;;6161590;23;20383;-92
2023/09/19 19:23:31;;;;;;;4.47;1.53;;;;;;;;;;6211414;23;20890;-91
2023/09/19 19:26:00;;;;;;;1.60;1.17;;;;;;;;;;6186257;23;20384;-91
2023/09/19 19:28:36;;;;;;;2.67;1.63;;;;;;;;;;6184050;23;20414;-92
2023/09/19 19:31:02;;;;;;;1.73;1.30;;;;;;;;;;6150728;23;20839;-94
2023/09/19 19:33:30;;;;;;;1.80;1.13;;;;;;;;;;6174817;23;20375;-91
2023/09/19 19:36:36;;;;;;;1.60;1.33;;;;;;;;;;6148984;23;20419;-93
2023/09/19 19:39:02;;;;;;;3.03;2.00;;;;;;;;;;6172678;23;20365;-94
2023/09/19 19:46:41;;;;;;;1.60;1.40;;;;;;;;;;6265906;22;20417;-93
2023/09/19 19:49:11;;;;;;;2.20;1.50;;;;;;;;;;6213901;23;20394;-93
2023/09/19 19:51:44;;;;;;;1.73;1.63;;;;;;;;;;6217188;23;20424;-94
2023/09/19 19:54:17;;;;;;;2.93;1.67;;;;;;;;;;6214931;23;20389;-93
2023/09/19 19:56:43;;;;;;;2.23;1.70;;;;;;;;;;6206226;23;20425;-92
2023/09/19 19:59:10;;;;;;;2.87;1.60;;;;;;;;;;6207585;23;20405;-94
2023/09/19 20:01:42;;;;;;;2.03;1.40;;;;;;;;;;6231480;22;20378;-92
2023/09/19 20:04:18;;;;;;;4.00;1.90;;;;;;;;;;6206241;23;20441;-93
2023/09/19 20:06:53;;;;;;;2.10;1.80;;;;;;;;;;6206521;23;20365;-94
2023/09/19 20:09:25;;;;;;;1.67;1.40;;;;;;;;;;6207439;23;20389;-94
2023/09/19 20:11:54;;;;;;;1.93;1.80;;;;;;;;;;6171716;23;20391;-95
2023/09/19 20:15:03;;;;;;;2.07;1.33;;;;;;;;;;6172309;23;20384;-94
2023/09/19 20:17:35;;;;;;;3.00;1.27;;;;;;;;;;6136012;23;20448;-92
2023/09/19 20:20:14;;;;;;;1.70;1.57;;;;;;;;;;6148207;23;20380;-92
2023/09/19 20:22:41;;;;;;;1.60;1.40;;;;;;;;;;6193247;23;20398;-93
2023/09/19 20:25:10;;;;;;;1.57;1.17;;;;;;;;;;6174035;23;21001;-93
2023/09/19 20:27:40;;;;;;;1.63;1.20;;;;;;;;;;6163859;23;20487;-93
2023/09/19 20:30:23;;;;;;;2.03;1.53;;;;;;;;;;6142766;23;20377;-92
2023/09/19 20:32:49;;;;;;;4.30;1.50;;;;;;;;;;6140631;23;20392;-93
2023/09/19 20:35:22;;;;;;;2.60;2.20;;;;;;;;;;6142525;23;20463;-94
2023/09/19 20:37:50;;;;;;;7.53;1.60;;;;;;;;;;6165547;23;20401;-93
2023/09/19 20:40:22;;;;;;;5.20;1.83;;;;;;;;;;6142888;23;20388;-94
2023/09/19 20:42:53;;;;;;;2.33;1.53;;;;;;;;;;6182064;23;20414;-93
2023/09/19 20:45:40;;;;;;;5.77;1.60;;;;;;;;;;6177919;23;20418;-92
2023/09/19 20:48:06;;;;;;;5.13;1.93;;;;;;;;;;6200438;23;20462;-93
2023/09/19 20:50:35;;;;;;;3.40;1.70;;;;;;;;;;6172328;23;20387;-93
2023/09/19 20:53:06;;;;;;;5.07;1.53;;;;;;;;;;6175026;23;20406;-94
2023/09/19 20:55:36;;;;;;;2.70;1.97;;;;;;;;;;6174428;23;20417;-94
2023/09/19 20:58:06;;;;;;;5.00;1.70;;;;;;;;;;6174197;23;20379;-93
2023/09/19 21:00:33;;;;;;;3.50;1.90;;;;;;;;;;6173099;23;20413;-94
2023/09/19 21:02:59;;;;;;;2.10;1.70;;;;;;;;;;6173773;23;20414;-93
2023/09/19 21:05:25;;;;;;;2.87;1.43;;;;;;;;;;6192820;23;20417;-93
2023/09/19 21:07:53;;;;;;;3.10;1.60;;;;;;;;;;6205665;23;20458;-93
2023/09/19 21:10:28;;;;;;;9.20;2.17;;;;;;;;;;6164619;23;20368;-91
2023/09/19 21:12:54;;;;;;;2.07;1.60;;;;;;;;;;6146199;23;20379;-93
2023/09/19 21:15:28;;;;;;;2.83;1.60;;;;;;;;;;6141668;23;20427;-92
2023/09/19 21:20:36;;;;;;;3.47;1.80;;;;;;;;;;6251264;22;20438;-93
2023/09/19 21:23:13;;;;;;;1.83;1.60;;;;;;;;;;6206189;23;20477;-94
2023/09/19 21:25:39;;;;;;;3.13;1.70;;;;;;;;;;6206346;23;20385;-92
2023/09/19 21:28:06;;;;;;;2.57;1.43;;;;;;;;;;6203783;23;20382;-92
2023/09/19 21:30:32;;;;;;;3.17;1.50;;;;;;;;;;6229655;23;20366;-92
2023/09/19 21:32:58;;;;;;;1.70;1.60;;;;;;;;;;6208072;23;20394;-92
2023/09/19 21:35:29;;;;;;;4.37;1.63;;;;;;;;;;6206236;23;20432;-92
2023/09/19 21:37:55;;;;;;;4.07;1.90;;;;;;;;;;6235030;23;20358;-92
2023/09/19 21:40:21;;;;;;;6.00;1.63;;;;;;;;;;6205212;23;20382;-93
2023/09/19 21:42:47;;;;;;;3.17;1.93;;;;;;;;;;6209095;23;20386;-93
2023/09/19 21:45:16;;;;;;;2.40;1.57;;;;;;;;;;6207135;23;20382;-93
2023/09/19 21:50:18;;;;;;;3.70;2.07;;;;;;;;;;6288015;22;20452;-92
2023/09/19 21:52:44;;;;;;;2.10;1.60;;;;;;;;;;6237988;22;20377;-93
2023/09/19 21:55:10;;;;;;;3.50;1.73;;;;;;;;;;6236854;22;20403;-92
2023/09/19 21:57:36;;;;;;;2.03;1.60;;;;;;;;;;6235789;22;20439;-92
2023/09/19 22:00:02;;;;;;;1.80;1.20;;;;;;;;;;6233495;22;20385;-92
2023/09/19 22:02:36;;;;;;;3.30;2.10;;;;;;;;;;6237221;22;20385;-91
2023/09/19 22:05:06;;;;;;;2.30;1.67;;;;;;;;;;6236001;22;20337;-93
2023/09/19 22:07:32;;;;;;;5.33;1.77;;;;;;;;;;6238118;22;20365;-93
2023/09/19 22:09:59;;;;;;;1.87;1.40;;;;;;;;;;6263070;22;20358;-93
2023/09/19 22:12:30;;;;;;;2.17;1.37;;;;;;;;;;6263952;22;20361;-92
2023/09/19 22:14:56;;;;;;;3.00;1.60;;;;;;;;;;6260773;22;20388;-92
2023/09/19 22:17:25;;;;;;;2.13;1.63;;;;;;;;;;6234821;22;20389;-92
2023/09/19 22:19:53;;;;;;;2.93;2.40;;;;;;;;;;6234798;22;20373;-92
2023/09/19 22:24:56;;;;;;;3.47;2.10;;;;;;;;;;6253013;22;20441;-92
2023/09/19 22:27:24;;;;;;;5.23;1.93;;;;;;;;;;6171783;23;20888;-91
2023/09/19 22:29:50;;;;;;;1.97;1.77;;;;;;;;;;6143908;23;20407;-91
2023/09/19 22:32:16;;;;;;;1.80;1.47;;;;;;;;;;6146517;23;20427;-91
2023/09/19 22:34:42;;;;;;;3.47;1.73;;;;;;;;;;6145031;23;20376;-92
2023/09/19 22:37:09;;;;;;;2.80;1.70;;;;;;;;;;6145227;23;20990;-92
2023/09/19 22:39:35;;;;;;;2.43;1.33;;;;;;;;;;6144611;23;20950;-92
2023/09/19 22:42:11;;;;;;;2.67;2.13;;;;;;;;;;6145932;23;20392;-91
2023/09/19 22:44:37;;;;;;;2.30;1.60;;;;;;;;;;6173294;23;20418;-92
2023/09/19 22:47:04;;;;;;;2.10;1.57;;;;;;;;;;6142543;23;20392;-92
2023/09/19 22:49:32;;;;;;;2.53;1.53;;;;;;;;;;6143967;23;20981;-91
2023/09/19 22:51:59;;;;;;;1.80;1.60;;;;;;;;;;6166454;23;20380;-92
2023/09/19 22:54:26;;;;;;;2.50;1.73;;;;;;;;;;6153325;23;20413;-92
2023/09/19 22:56:53;;;;;;;2.37;1.90;;;;;;;;;;6142748;23;20503;-91
2023/09/19 22:59:20;;;;;;;1.50;1.40;;;;;;;;;;6171919;23;20422;-91
2023/09/19 23:01:49;;;;;;;2.13;1.40;;;;;;;;;;6172530;23;20379;-91
2023/09/19 23:04:15;;;;;;;2.47;1.57;;;;;;;;;;6176624;23;20390;-91
2023/09/19 23:06:47;;;;;;;2.27;1.63;;;;;;;;;;6173656;23;20423;-91
2023/09/19 23:09:24;;;;;;;1.90;1.70;;;;;;;;;;6175739;23;20374;-90
2023/09/19 23:12:02;;;;;;;2.03;1.80;;;;;;;;;;6200796;23;20408;-90
2023/09/19 23:14:34;;;;;;;2.90;2.57;;;;;;;;;;6178398;23;20391;-91
2023/09/19 23:17:04;;;;;;;1.73;1.57;;;;;;;;;;6174428;23;20410;-91
2023/09/19 23:19:31;;;;;;;6.30;1.47;;;;;;;;;;6175071;23;20394;-92
2023/09/19 23:22:09;;;;;;;2.40;1.60;;;;;;;;;;6178459;22;20371;-91
2023/09/19 23:24:40;;;;;;;2.93;2.10;;;;;;;;;;6204520;22;20453;-92
2023/09/19 23:27:06;;;;;;;2.00;1.53;;;;;;;;;;6206808;22;20408;-92
2023/09/19 23:29:38;;;;;;;2.70;1.60;;;;;;;;;;6209237;23;20382;-93
2023/09/19 23:32:04;;;;;;;1.47;1.37;;;;;;;;;;6229486;22;20362;-90
2023/09/19 23:34:32;;;;;;;2.30;1.43;;;;;;;;;;6208413;23;20769;-91
2023/09/19 23:36:58;;;;;;;2.83;1.93;;;;;;;;;;6205418;23;20452;-92
2023/09/19 23:39:25;;;;;;;3.97;2.37;;;;;;;;;;6207467;23;20401;-90